Time;durP1;ratioP1;P1;durP2;ratioP2;P2;SDS_P1;SDS_P2;PMS_P1;PMS_P2;Temp;Humidity;BMP_temperature;BMP_pressure;BME280_temperature;BME280_humidity;BME280_pressure;Samples;Min_cycle;Max_cycle;Signal;HPM_P1;HPM_P2
2023/06/15 00:01:14;;;;;;;4.97;1.10;;;13.50;99.90;;;;;;4956301;28;20260;-72
2023/06/15 00:03:46;;;;;;;2.88;1.05;;;13.60;99.90;;;;;;4956602;28;20260;-71
2023/06/15 00:06:19;;;;;;;3.83;0.93;;;13.60;99.90;;;;;;4971762;28;20222;-72
2023/06/15 00:08:52;;;;;;;2.53;0.80;;;13.80;99.90;;;;;;4975806;28;20242;-72
2023/06/15 00:11:23;;;;;;;4.57;1.00;;;13.90;99.90;;;;;;4975681;28;20200;-72
2023/06/15 00:13:53;;;;;;;3.83;0.70;;;14.00;99.90;;;;;;4975415;28;20270;-73
2023/06/15 00:16:31;;;;;;;2.50;0.70;;;14.10;99.90;;;;;;4975674;28;20189;-72
2023/06/15 00:19:02;;;;;;;2.85;0.90;;;14.20;99.90;;;;;;4950386;29;20212;-72
2023/06/15 00:21:40;;;;;;;4.65;0.70;;;14.30;99.90;;;;;;4956275;28;20192;-73
2023/06/15 00:24:11;;;;;;;2.10;0.65;;;14.40;99.90;;;;;;4956221;28;20211;-72
2023/06/15 00:26:42;;;;;;;2.35;0.85;;;14.50;99.90;;;;;;4956250;28;20271;-72
2023/06/15 00:29:12;;;;;;;4.03;0.70;;;14.60;99.90;;;;;;4956023;28;20257;-70
2023/06/15 00:31:43;;;;;;;3.45;0.60;;;14.70;99.90;;;;;;4956138;28;20197;-71
2023/06/15 00:34:14;;;;;;;2.80;0.80;;;14.80;99.90;;;;;;4956845;28;20228;-71
2023/06/15 00:36:46;;;;;;;4.00;0.70;;;14.80;99.90;;;;;;4955764;28;20204;-71
2023/06/15 00:39:18;;;;;;;4.13;0.70;;;14.90;99.90;;;;;;4954084;28;20252;-71
2023/06/15 00:41:48;;;;;;;1.25;0.57;;;15.00;99.90;;;;;;4954946;28;20200;-71
2023/06/15 00:44:19;;;;;;;5.70;0.77;;;15.10;99.90;;;;;;4954993;28;20267;-72
2023/06/15 00:46:50;;;;;;;0.82;0.45;;;15.10;99.90;;;;;;4954056;28;20256;-73
2023/06/15 00:49:22;;;;;;;2.78;0.70;;;15.10;99.90;;;;;;4946346;29;20595;-71
2023/06/15 00:51:55;;;;;;;2.25;0.65;;;15.10;99.90;;;;;;4955091;28;20201;-71
2023/06/15 00:54:26;;;;;;;1.90;0.80;;;15.20;99.90;;;;;;4952751;29;20220;-71
2023/06/15 00:56:58;;;;;;;4.28;1.02;;;15.30;99.90;;;;;;4949084;28;20201;-71
2023/06/15 00:59:29;;;;;;;3.05;1.00;;;15.30;99.90;;;;;;4954643;28;20193;-71
2023/06/15 01:01:59;;;;;;;1.35;0.60;;;15.40;99.90;;;;;;4951178;28;20263;-71
2023/06/15 01:04:30;;;;;;;2.40;0.70;;;15.40;99.90;;;;;;4952670;28;20205;-71
2023/06/15 01:07:04;;;;;;;1.52;0.50;;;15.50;99.90;;;;;;4952596;29;20727;-71
2023/06/15 01:09:40;;;;;;;1.90;0.60;;;15.50;99.90;;;;;;4951586;28;20197;-71
2023/06/15 01:12:13;;;;;;;2.33;0.68;;;15.40;99.90;;;;;;4954064;28;20207;-71
2023/06/15 01:14:45;;;;;;;1.65;0.65;;;15.50;99.90;;;;;;4953215;28;20221;-71
2023/06/15 01:17:23;;;;;;;1.52;0.70;;;15.50;99.90;;;;;;4951699;28;20200;-71
2023/06/15 01:20:04;;;;;;;1.92;0.70;;;15.50;99.90;;;;;;4953949;28;20239;-72
2023/06/15 01:22:49;;;;;;;0.82;0.50;;;15.50;99.90;;;;;;4952622;28;20653;-72
2023/06/15 01:25:26;;;;;;;3.85;0.80;;;15.40;99.90;;;;;;4963548;28;20196;-71
2023/06/15 01:28:01;;;;;;;3.25;0.85;;;15.50;99.90;;;;;;4940225;29;20281;-72
2023/06/15 01:30:33;;;;;;;2.20;0.70;;;15.70;99.90;;;;;;4953829;28;20208;-71
2023/06/15 01:33:04;;;;;;;2.15;0.80;;;15.80;99.90;;;;;;4952591;28;20236;-71
2023/06/15 01:35:35;;;;;;;1.27;0.60;;;15.90;99.90;;;;;;4952267;28;20353;-71
2023/06/15 01:38:06;;;;;;;1.95;0.80;;;16.00;99.90;;;;;;4952648;29;20204;-71
2023/06/15 01:40:39;;;;;;;2.35;1.00;;;16.00;99.90;;;;;;4950164;29;20208;-71
2023/06/15 01:43:13;;;;;;;3.55;1.05;;;16.10;99.90;;;;;;4940570;29;20268;-72
2023/06/15 01:45:46;;;;;;;2.40;0.80;;;16.10;99.90;;;;;;4942850;29;20201;-71
2023/06/15 01:48:17;;;;;;;2.97;0.60;;;16.20;99.90;;;;;;4950885;28;20247;-71
2023/06/15 01:50:48;;;;;;;2.53;0.50;;;16.20;99.90;;;;;;4953229;28;20201;-72
2023/06/15 01:53:19;;;;;;;2.08;0.60;;;16.20;99.90;;;;;;4953171;29;20205;-72
2023/06/15 01:55:50;;;;;;;2.65;0.70;;;16.20;99.90;;;;;;4954249;28;20224;-71
2023/06/15 01:58:22;;;;;;;2.40;0.77;;;16.20;99.90;;;;;;4953961;29;20193;-71
2023/06/15 02:00:53;;;;;;;1.60;0.80;;;16.20;99.90;;;;;;4954574;28;20299;-71
2023/06/15 02:03:23;;;;;;;2.17;0.80;;;16.30;99.90;;;;;;4954971;28;20193;-71
2023/06/15 02:05:54;;;;;;;2.72;0.73;;;16.40;99.90;;;;;;4954986;28;20197;-71
2023/06/15 02:08:25;;;;;;;1.55;0.60;;;16.50;99.90;;;;;;4954997;28;20197;-72
2023/06/15 02:10:56;;;;;;;3.95;0.90;;;16.60;99.90;;;;;;4954762;28;20276;-71
2023/06/15 02:13:29;;;;;;;3.75;0.80;;;16.60;99.90;;;;;;4954903;28;20273;-75
2023/06/15 02:15:59;;;;;;;4.72;0.70;;;16.70;99.90;;;;;;4954753;28;20288;-72
2023/06/15 02:18:30;;;;;;;2.28;0.60;;;16.80;99.90;;;;;;4954862;28;20220;-71
2023/06/15 02:21:01;;;;;;;1.67;0.50;;;16.80;99.90;;;;;;4954729;28;20194;-71
2023/06/15 02:23:32;;;;;;;1.65;0.50;;;16.60;99.90;;;;;;4958425;28;20248;-71
2023/06/15 02:26:03;;;;;;;2.63;0.52;;;16.60;99.90;;;;;;4958185;28;20208;-71
2023/06/15 02:28:35;;;;;;;1.23;0.50;;;16.70;99.90;;;;;;4958334;28;20189;-73
2023/06/15 02:31:06;;;;;;;1.67;0.50;;;16.70;99.90;;;;;;4958273;28;20197;-71
2023/06/15 02:33:37;;;;;;;1.83;0.70;;;16.70;99.90;;;;;;4958270;28;20185;-71
2023/06/15 02:36:08;;;;;;;1.17;0.60;;;16.90;99.90;;;;;;4955372;28;20283;-73
2023/06/15 02:38:40;;;;;;;3.03;0.52;;;16.90;99.90;;;;;;4955551;28;20197;-71
2023/06/15 02:41:10;;;;;;;2.47;0.55;;;16.90;99.90;;;;;;4957899;28;20199;-72
2023/06/15 02:43:43;;;;;;;1.80;0.65;;;17.10;99.90;;;;;;4957989;28;20265;-71
2023/06/15 02:46:13;;;;;;;1.15;0.60;;;17.20;99.90;;;;;;4957912;28;20248;-72
2023/06/15 02:48:44;;;;;;;1.95;0.90;;;17.20;99.90;;;;;;4957858;28;20240;-72
2023/06/15 02:51:14;;;;;;;1.98;0.77;;;17.20;99.90;;;;;;4957908;28;20193;-72
2023/06/15 02:53:46;;;;;;;2.83;0.70;;;17.20;99.90;;;;;;4957704;28;20225;-72
2023/06/15 02:56:19;;;;;;;2.00;0.57;;;17.30;99.90;;;;;;4957826;28;20216;-72
2023/06/15 02:58:53;;;;;;;1.10;0.60;;;17.30;99.90;;;;;;4957794;28;20656;-72
2023/06/15 03:01:38;;;;;;;1.98;0.93;;;17.30;99.90;;;;;;4957344;28;20310;-72
2023/06/15 03:04:14;;;;;;;1.27;0.40;;;17.20;99.90;;;;;;4958557;28;20197;-72
2023/06/15 03:06:44;;;;;;;3.25;0.65;;;17.20;99.90;;;;;;4958135;28;20231;-72
2023/06/15 03:09:15;;;;;;;1.67;0.50;;;17.30;99.90;;;;;;4957434;28;20197;-71
2023/06/15 03:11:46;;;;;;;1.65;0.60;;;17.40;99.90;;;;;;4957681;28;20193;-71
2023/06/15 03:14:18;;;;;;;1.67;0.43;;;17.50;99.90;;;;;;4957444;28;20248;-71
2023/06/15 03:16:51;;;;;;;1.55;0.40;;;17.50;99.90;;;;;;4957541;28;20197;-71
2023/06/15 03:19:22;;;;;;;2.13;0.60;;;17.60;99.90;;;;;;4957545;28;20240;-72
2023/06/15 03:21:52;;;;;;;1.67;0.43;;;17.60;99.90;;;;;;4957327;28;20197;-71
2023/06/15 03:24:23;;;;;;;0.55;0.30;;;17.60;99.90;;;;;;4957180;28;20251;-71
2023/06/15 03:26:57;;;;;;;1.70;0.40;;;17.50;99.90;;;;;;4957369;28;20200;-71
2023/06/15 03:29:31;;;;;;;3.42;0.50;;;17.50;99.90;;;;;;4957419;28;20196;-72
2023/06/15 03:32:02;;;;;;;1.38;0.30;;;17.50;99.90;;;;;;4957234;28;20187;-72
2023/06/15 03:34:32;;;;;;;0.95;0.47;;;17.60;99.90;;;;;;4956293;28;20220;-71
2023/06/15 03:37:03;;;;;;;2.33;0.40;;;17.80;99.90;;;;;;4957020;28;20193;-72
2023/06/15 03:39:34;;;;;;;1.23;0.90;;;17.80;99.90;;;;;;4957213;28;20197;-72
2023/06/15 03:42:05;;;;;;;1.30;0.57;;;17.90;99.90;;;;;;4956974;28;20192;-72
2023/06/15 03:44:37;;;;;;;2.85;0.63;;;18.00;99.90;;;;;;4957033;28;20197;-72
2023/06/15 03:47:08;;;;;;;1.75;0.40;;;17.90;99.90;;;;;;4956980;28;20335;-71
2023/06/15 03:49:39;;;;;;;2.45;0.68;;;17.90;99.90;;;;;;4956995;28;20252;-72
2023/06/15 03:52:11;;;;;;;1.98;0.50;;;17.80;99.90;;;;;;4956700;28;20193;-73
2023/06/15 03:54:42;;;;;;;1.55;0.57;;;17.90;99.90;;;;;;4956798;28;20220;-71
2023/06/15 03:57:12;;;;;;;2.25;0.70;;;17.90;99.90;;;;;;4956666;28;20208;-72
2023/06/15 03:59:45;;;;;;;2.05;0.80;;;18.00;99.90;;;;;;4956702;28;20197;-72
2023/06/15 04:02:16;;;;;;;1.40;0.50;;;18.00;99.90;;;;;;4956677;28;20237;-72
2023/06/15 04:04:46;;;;;;;0.47;0.30;;;18.10;99.90;;;;;;4956642;28;20200;-72
2023/06/15 04:07:17;;;;;;;1.50;0.50;;;18.10;99.90;;;;;;4956504;29;20200;-71
2023/06/15 04:09:47;;;;;;;1.17;0.40;;;18.00;99.90;;;;;;4954825;28;20244;-72
2023/06/15 04:12:18;;;;;;;1.30;0.43;;;18.00;99.90;;;;;;4953368;29;20223;-72
2023/06/15 04:14:50;;;;;;;0.50;0.30;;;18.00;99.90;;;;;;4968531;28;20212;-72
2023/06/15 04:17:21;;;;;;;1.35;0.32;;;18.10;99.90;;;;;;4958570;28;20694;-72
2023/06/15 04:19:51;;;;;;;3.30;0.70;;;18.10;99.90;;;;;;4949590;28;20209;-72
2023/06/15 04:22:22;;;;;;;1.70;0.63;;;18.10;99.90;;;;;;4952232;28;20739;-72
2023/06/15 04:24:53;;;;;;;0.93;0.35;;;18.20;99.90;;;;;;4953430;28;20200;-74
2023/06/15 04:27:24;;;;;;;1.98;0.40;;;18.20;99.90;;;;;;4955579;28;20543;-72
2023/06/15 04:29:57;;;;;;;1.27;0.30;;;18.10;99.90;;;;;;4952737;28;20201;-71
2023/06/15 04:32:29;;;;;;;3.17;0.95;;;18.10;99.90;;;;;;4954643;28;20583;-71
2023/06/15 04:35:01;;;;;;;0.85;0.30;;;18.10;99.90;;;;;;4951380;28;20567;-71
2023/06/15 04:37:32;;;;;;;1.23;0.35;;;18.10;99.90;;;;;;4951033;29;20605;-72
2023/06/15 04:40:04;;;;;;;1.30;0.43;;;18.20;99.90;;;;;;4955461;28;20211;-72
2023/06/15 04:42:40;;;;;;;0.88;0.43;;;18.20;99.90;;;;;;4946879;28;20199;-73
2023/06/15 04:45:13;;;;;;;1.67;0.40;;;18.20;99.90;;;;;;4963380;28;20239;-73
2023/06/15 04:47:44;;;;;;;0.80;0.50;;;18.40;99.90;;;;;;4950503;29;20201;-74
2023/06/15 04:50:15;;;;;;;1.80;0.60;;;18.40;99.90;;;;;;4956719;28;20241;-73
2023/06/15 04:52:48;;;;;;;2.17;0.43;;;18.40;99.90;;;;;;4955762;28;20280;-74
2023/06/15 04:55:18;;;;;;;0.43;0.30;;;18.30;99.90;;;;;;4955845;28;20224;-73
2023/06/15 04:57:49;;;;;;;0.63;0.20;;;18.20;99.90;;;;;;4955182;28;20193;-74
2023/06/15 05:00:22;;;;;;;0.38;0.25;;;18.20;99.90;;;;;;4954454;28;20247;-74
2023/06/15 05:02:53;;;;;;;0.50;0.30;;;18.20;99.90;;;;;;4954814;28;20650;-74
2023/06/15 05:05:24;;;;;;;1.23;0.50;;;18.20;99.90;;;;;;4953967;28;20211;-74
2023/06/15 05:07:55;;;;;;;0.90;0.35;;;18.20;99.90;;;;;;4955442;28;20659;-74
2023/06/15 05:10:25;;;;;;;0.98;0.30;;;18.10;99.90;;;;;;4953444;29;20203;-73
2023/06/15 05:12:58;;;;;;;1.38;0.32;;;18.10;99.90;;;;;;4955474;28;20197;-74
2023/06/15 05:15:34;;;;;;;1.20;0.50;;;18.10;99.90;;;;;;4953902;28;20275;-73
2023/06/15 05:18:05;;;;;;;2.22;0.60;;;18.10;99.90;;;;;;4955349;28;20193;-73
2023/06/15 05:20:35;;;;;;;0.82;0.30;;;18.00;99.90;;;;;;4953651;28;20208;-73
2023/06/15 05:23:07;;;;;;;1.08;0.30;;;18.00;99.90;;;;;;4955456;28;20240;-73
2023/06/15 05:25:38;;;;;;;0.93;0.30;;;18.00;99.90;;;;;;4954910;28;20544;-73
2023/06/15 05:28:08;;;;;;;0.85;0.25;;;18.00;99.90;;;;;;4952051;28;20271;-73
2023/06/15 05:30:41;;;;;;;0.32;0.25;;;18.00;99.90;;;;;;4954641;28;20200;-73
2023/06/15 05:33:11;;;;;;;0.40;0.30;;;18.10;99.90;;;;;;4953778;28;20618;-73
2023/06/15 05:35:43;;;;;;;0.88;0.40;;;18.10;99.90;;;;;;4955076;28;20225;-72
2023/06/15 05:38:17;;;;;;;0.45;0.30;;;18.10;99.90;;;;;;4952070;28;20205;-74
2023/06/15 05:40:48;;;;;;;0.47;0.45;;;18.10;99.90;;;;;;4954498;28;20288;-72
2023/06/15 05:43:19;;;;;;;2.28;0.45;;;18.00;99.90;;;;;;4940262;28;20623;-71
2023/06/15 05:45:52;;;;;;;1.42;0.40;;;18.00;99.90;;;;;;4950596;29;20788;-71
2023/06/15 05:48:22;;;;;;;0.80;0.40;;;18.00;99.90;;;;;;4954665;28;20201;-72
2023/06/15 05:50:53;;;;;;;1.05;0.38;;;18.00;99.90;;;;;;4951987;28;20232;-72
2023/06/15 05:53:24;;;;;;;1.63;0.30;;;17.90;99.90;;;;;;4953271;29;20664;-72
2023/06/15 05:55:54;;;;;;;0.75;0.20;;;17.90;99.90;;;;;;4953268;28;20300;-71
2023/06/15 05:58:25;;;;;;;0.82;0.40;;;17.80;99.90;;;;;;4957566;28;20212;-73
2023/06/15 06:00:58;;;;;;;0.50;0.30;;;17.80;99.90;;;;;;4956112;28;20327;-72
2023/06/15 06:03:28;;;;;;;1.05;0.38;;;17.80;99.90;;;;;;4956856;28;20209;-72
2023/06/15 06:05:59;;;;;;;0.50;0.40;;;17.70;99.90;;;;;;4958412;28;20201;-71
2023/06/15 06:08:29;;;;;;;2.70;1.20;;;17.70;99.90;;;;;;4956131;28;20209;-72
2023/06/15 06:11:01;;;;;;;0.93;0.40;;;17.60;99.90;;;;;;4955075;28;20243;-71
2023/06/15 06:13:32;;;;;;;0.38;0.38;;;17.60;99.90;;;;;;4952799;28;20204;-72
2023/06/15 06:16:04;;;;;;;0.60;0.50;;;17.60;99.90;;;;;;4953356;29;20315;-72
2023/06/15 06:18:35;;;;;;;1.65;0.45;;;17.60;99.90;;;;;;4956888;28;20224;-71
2023/06/15 06:21:05;;;;;;;0.70;0.40;;;17.50;99.90;;;;;;4955969;28;20264;-71
2023/06/15 06:23:36;;;;;;;1.38;0.40;;;17.50;99.90;;;;;;4956466;28;20202;-72
2023/06/15 06:26:07;;;;;;;0.77;0.32;;;17.40;99.90;;;;;;4954923;28;20205;-72
2023/06/15 06:28:38;;;;;;;1.02;0.60;;;17.30;99.90;;;;;;4956558;28;20234;-72
2023/06/15 06:31:11;;;;;;;1.40;0.50;;;17.30;99.90;;;;;;4956261;28;20196;-72
2023/06/15 06:33:41;;;;;;;1.65;0.60;;;17.20;99.90;;;;;;4952335;29;20208;-71
2023/06/15 06:36:12;;;;;;;1.27;0.50;;;17.20;99.90;;;;;;4956280;28;20224;-73
2023/06/15 06:38:42;;;;;;;1.55;0.60;;;17.10;99.90;;;;;;4946828;29;20201;-72
2023/06/15 06:41:14;;;;;;;0.80;0.40;;;17.00;99.90;;;;;;4954632;28;20357;-71
2023/06/15 06:43:44;;;;;;;1.20;0.40;;;16.90;99.90;;;;;;4955760;29;20197;-71
2023/06/15 06:46:17;;;;;;;2.00;0.40;;;16.90;99.90;;;;;;4956463;28;20204;-71
2023/06/15 06:48:50;;;;;;;1.30;0.40;;;16.70;99.90;;;;;;4956349;29;20201;-71
2023/06/15 06:51:21;;;;;;;2.50;0.60;;;16.70;99.90;;;;;;4955488;28;20599;-72
2023/06/15 06:53:53;;;;;;;1.02;0.52;;;16.60;99.90;;;;;;4956116;28;20201;-72
2023/06/15 06:56:23;;;;;;;1.35;0.60;;;16.50;99.90;;;;;;4954726;28;20260;-71
2023/06/15 06:58:54;;;;;;;0.70;0.52;;;16.40;99.90;;;;;;4955263;28;20205;-72
2023/06/15 07:01:26;;;;;;;2.30;1.05;;;16.40;99.90;;;;;;4956712;28;20240;-72
2023/06/15 07:03:57;;;;;;;2.47;0.70;;;16.30;99.90;;;;;;4955967;28;20201;-72
2023/06/15 07:06:28;;;;;;;1.65;0.90;;;16.30;99.90;;;;;;4957748;28;20205;-71
2023/06/15 07:09:00;;;;;;;2.67;0.90;;;16.20;99.90;;;;;;4954907;28;20723;-72
2023/06/15 07:11:30;;;;;;;3.05;1.00;;;16.20;99.90;;;;;;4963710;28;20197;-71
2023/06/15 07:14:03;;;;;;;3.15;0.90;;;16.10;99.90;;;;;;4959942;28;20223;-71
2023/06/15 07:16:38;;;;;;;3.22;1.15;;;16.10;99.90;;;;;;4957246;28;20220;-72
2023/06/15 07:19:09;;;;;;;4.90;1.23;;;16.00;99.90;;;;;;4955739;28;20204;-71
2023/06/15 07:21:39;;;;;;;4.80;1.20;;;15.90;99.90;;;;;;4950412;28;20212;-72
2023/06/15 07:24:10;;;;;;;2.50;1.10;;;15.90;99.90;;;;;;4958259;28;20197;-73
2023/06/15 07:26:41;;;;;;;3.33;1.20;;;15.80;99.90;;;;;;4957050;28;20223;-72
2023/06/15 07:29:11;;;;;;;3.55;1.15;;;15.80;99.90;;;;;;4960931;28;20560;-72
2023/06/15 07:31:45;;;;;;;2.75;1.10;;;15.70;99.90;;;;;;4960738;28;20213;-71
2023/06/15 07:34:17;;;;;;;2.38;1.02;;;15.70;99.90;;;;;;4955557;28;20200;-72
2023/06/15 07:36:48;;;;;;;4.35;1.00;;;15.60;99.90;;;;;;4955489;28;20216;-71
2023/06/15 07:39:20;;;;;;;4.25;1.00;;;15.60;99.90;;;;;;4954567;28;20197;-72
2023/06/15 07:41:50;;;;;;;1.83;0.80;;;15.50;99.90;;;;;;4956037;28;20665;-71
2023/06/15 07:44:21;;;;;;;0.77;0.60;;;15.50;99.90;;;;;;4955837;28;20366;-71
2023/06/15 07:46:54;;;;;;;2.63;0.73;;;15.40;99.90;;;;;;4951053;28;20197;-71
2023/06/15 07:49:25;;;;;;;1.85;0.80;;;15.40;99.90;;;;;;4956528;28;20197;-73
2023/06/15 07:51:55;;;;;;;3.05;0.80;;;15.40;99.90;;;;;;4956747;28;20197;-73
2023/06/15 07:54:26;;;;;;;1.40;0.63;;;15.30;99.90;;;;;;4956626;28;20224;-73
2023/06/15 07:56:57;;;;;;;1.65;0.70;;;15.30;99.90;;;;;;4964480;28;20224;-73
2023/06/15 07:59:28;;;;;;;2.60;0.90;;;15.20;99.90;;;;;;4949448;28;20664;-73
2023/06/15 08:02:02;;;;;;;1.85;0.68;;;15.20;99.90;;;;;;4953997;29;20244;-72
2023/06/15 08:04:33;;;;;;;2.42;0.90;;;15.10;99.90;;;;;;4955789;28;20201;-72
2023/06/15 08:07:04;;;;;;;4.05;1.05;;;15.10;99.90;;;;;;4954703;28;20213;-72
2023/06/15 08:09:34;;;;;;;3.83;0.93;;;15.10;99.90;;;;;;4955762;28;20304;-71
2023/06/15 08:12:06;;;;;;;3.08;0.90;;;15.00;99.90;;;;;;4956194;28;20699;-72
2023/06/15 08:14:37;;;;;;;3.00;0.70;;;15.00;99.90;;;;;;4952519;29;20223;-71
2023/06/15 08:17:12;;;;;;;1.55;0.80;;;15.00;99.90;;;;;;4954665;28;20248;-71
2023/06/15 08:19:42;;;;;;;2.63;0.90;;;15.00;99.90;;;;;;4953658;29;20203;-71
2023/06/15 08:22:13;;;;;;;2.13;0.80;;;14.90;99.90;;;;;;4952931;28;20197;-72
2023/06/15 08:24:44;;;;;;;1.05;0.88;;;14.90;99.90;;;;;;4950914;28;20212;-71
2023/06/15 08:27:14;;;;;;;2.13;0.90;;;14.80;99.90;;;;;;4951494;28;20570;-72
2023/06/15 08:29:48;;;;;;;2.47;1.00;;;14.80;99.90;;;;;;4944255;29;20623;-71
2023/06/15 08:32:21;;;;;;;2.78;1.17;;;14.80;99.90;;;;;;4954080;28;20208;-72
2023/06/15 08:34:51;;;;;;;1.83;1.20;;;14.80;99.90;;;;;;4953171;28;20653;-72
2023/06/15 08:37:22;;;;;;;1.67;1.15;;;14.70;99.90;;;;;;4945646;28;20217;-71
2023/06/15 08:39:54;;;;;;;3.15;1.02;;;14.70;99.90;;;;;;4949761;28;20197;-71
2023/06/15 08:42:25;;;;;;;3.55;1.10;;;14.60;99.90;;;;;;4954709;28;20679;-72
2023/06/15 08:44:57;;;;;;;3.28;1.00;;;14.60;99.90;;;;;;4953596;28;20213;-72
2023/06/15 08:47:30;;;;;;;3.72;1.20;;;14.60;99.90;;;;;;4954551;28;20205;-71
2023/06/15 08:50:03;;;;;;;1.98;1.10;;;14.50;99.90;;;;;;4952994;28;20204;-73
2023/06/15 08:52:37;;;;;;;3.35;1.30;;;14.50;99.90;;;;;;4954633;28;20236;-71
2023/06/15 08:55:12;;;;;;;3.65;1.27;;;14.50;99.90;;;;;;4953235;29;20215;-72
2023/06/15 08:57:42;;;;;;;2.58;1.33;;;14.50;99.90;;;;;;4954701;28;20232;-71
2023/06/15 09:00:14;;;;;;;1.65;1.10;;;14.50;99.90;;;;;;4952873;28;20229;-72
2023/06/15 09:02:50;;;;;;;2.63;1.17;;;14.40;99.90;;;;;;4950751;28;20233;-71
2023/06/15 09:05:22;;;;;;;2.42;1.00;;;14.40;99.90;;;;;;4952787;28;20678;-72
2023/06/15 09:07:53;;;;;;;1.83;1.00;;;14.40;99.90;;;;;;4958746;28;20208;-71
2023/06/15 09:10:24;;;;;;;1.85;0.80;;;14.40;99.90;;;;;;4957915;28;20556;-72
2023/06/15 09:12:56;;;;;;;2.25;1.00;;;14.30;99.90;;;;;;4954623;29;20201;-71
2023/06/15 09:15:27;;;;;;;3.45;1.00;;;14.30;99.90;;;;;;4951414;28;20598;-72
2023/06/15 09:18:01;;;;;;;1.75;0.90;;;14.20;99.90;;;;;;4949804;28;20228;-71
2023/06/15 09:20:34;;;;;;;1.80;1.33;;;14.20;99.90;;;;;;4951438;28;20201;-71
2023/06/15 09:23:06;;;;;;;1.17;0.80;;;14.10;99.90;;;;;;4944937;28;20201;-71
2023/06/15 09:25:36;;;;;;;2.72;1.30;;;14.10;99.90;;;;;;4953214;28;20284;-71
2023/06/15 09:28:09;;;;;;;2.25;1.40;;;14.10;99.90;;;;;;4953385;28;20204;-71
2023/06/15 09:30:41;;;;;;;4.93;1.40;;;14.10;99.90;;;;;;4951182;28;20676;-72
2023/06/15 09:33:19;;;;;;;2.08;1.30;;;14.00;99.90;;;;;;4954094;28;20201;-71
2023/06/15 09:36:03;;;;;;;2.42;1.35;;;13.90;99.90;;;;;;4951108;28;20277;-71
2023/06/15 09:38:42;;;;;;;2.60;1.30;;;13.90;99.90;;;;;;4954058;28;20287;-71
2023/06/15 09:41:15;;;;;;;3.90;1.67;;;13.80;99.90;;;;;;4952126;28;20271;-71
2023/06/15 09:43:48;;;;;;;3.40;1.77;;;13.70;99.90;;;;;;4954507;28;20255;-71
2023/06/15 09:46:20;;;;;;;3.35;1.52;;;13.70;99.90;;;;;;4952064;28;20213;-71
2023/06/15 09:48:53;;;;;;;3.97;1.92;;;13.60;99.90;;;;;;4955023;29;20227;-72
2023/06/15 09:51:28;;;;;;;4.40;1.92;;;13.60;99.90;;;;;;4953985;28;20224;-72
2023/06/15 09:54:00;;;;;;;4.70;2.20;;;13.60;99.90;;;;;;4953610;28;20215;-72
2023/06/15 09:56:31;;;;;;;3.45;1.88;;;13.60;99.90;;;;;;4951915;28;20217;-71
2023/06/15 09:59:02;;;;;;;4.55;2.15;;;13.60;99.90;;;;;;4951999;28;20201;-71
2023/06/15 10:01:36;;;;;;;4.80;2.10;;;13.60;99.90;;;;;;4952799;28;20288;-71
2023/06/15 10:04:09;;;;;;;3.97;2.33;;;13.60;99.90;;;;;;4946898;29;20208;-72
2023/06/15 10:06:46;;;;;;;3.08;2.10;;;13.60;99.90;;;;;;4949870;29;20211;-71
2023/06/15 10:09:22;;;;;;;4.13;2.40;;;13.50;99.90;;;;;;4954018;28;20208;-71
2023/06/15 10:11:56;;;;;;;4.70;2.05;;;13.50;99.90;;;;;;4952904;29;20205;-72
2023/06/15 10:14:31;;;;;;;4.32;1.90;;;13.50;99.90;;;;;;4948392;29;20259;-72
2023/06/15 10:17:09;;;;;;;5.22;1.83;;;13.50;99.90;;;;;;4952704;28;20216;-72
2023/06/15 10:19:46;;;;;;;5.25;2.30;;;13.50;99.90;;;;;;4951872;28;20653;-71
2023/06/15 10:22:20;;;;;;;4.93;2.17;;;13.40;99.90;;;;;;4953522;28;20204;-72
2023/06/15 10:24:53;;;;;;;5.00;2.15;;;13.40;99.90;;;;;;4951832;28;20645;-72
2023/06/15 10:27:27;;;;;;;4.50;2.33;;;13.40;99.90;;;;;;4952497;28;20284;-71
2023/06/15 10:30:10;;;;;;;5.70;1.90;;;13.30;99.90;;;;;;4952948;28;20207;-71
2023/06/15 10:32:49;;;;;;;3.83;1.65;;;13.30;99.90;;;;;;4953104;28;20236;-72
2023/06/15 10:35:30;;;;;;;3.25;1.55;;;13.30;99.90;;;;;;4950133;29;20201;-72
2023/06/15 10:38:17;;;;;;;3.22;1.90;;;13.30;99.90;;;;;;4952131;28;20227;-72
2023/06/15 10:40:51;;;;;;;3.80;1.60;;;13.30;99.90;;;;;;4953590;28;20563;-71
2023/06/15 10:43:23;;;;;;;4.00;1.70;;;13.30;99.90;;;;;;4952229;28;20201;-72
2023/06/15 10:45:54;;;;;;;3.13;1.75;;;13.20;99.90;;;;;;4956977;29;20201;-71
2023/06/15 10:48:27;;;;;;;3.70;1.65;;;13.20;99.90;;;;;;4950339;29;20204;-71
2023/06/15 10:51:08;;;;;;;3.80;1.70;;;13.20;99.90;;;;;;4953768;28;20204;-71
2023/06/15 10:53:45;;;;;;;2.78;1.50;;;13.20;99.90;;;;;;4955151;28;20227;-71
2023/06/15 10:56:19;;;;;;;3.10;1.63;;;13.20;99.90;;;;;;4958567;28;20196;-71
2023/06/15 10:58:57;;;;;;;3.15;1.65;;;13.20;99.90;;;;;;4955659;28;20229;-71
2023/06/15 11:01:30;;;;;;;3.88;1.70;;;13.10;99.90;;;;;;4957564;28;20228;-71
2023/06/15 11:04:02;;;;;;;4.55;1.50;;;13.10;99.90;;;;;;4957709;28;20669;-71
2023/06/15 11:06:38;;;;;;;3.50;1.60;;;13.10;99.90;;;;;;4956822;28;20212;-71
2023/06/15 11:09:14;;;;;;;4.47;1.70;;;13.10;99.90;;;;;;4957883;28;20189;-72
2023/06/15 11:11:49;;;;;;;2.88;1.55;;;13.10;99.90;;;;;;4957415;28;20197;-70
2023/06/15 11:14:26;;;;;;;3.97;1.70;;;13.10;99.90;;;;;;4957942;28;20247;-71
2023/06/15 11:17:08;;;;;;;4.65;1.63;;;13.10;99.90;;;;;;4957111;28;20271;-71
2023/06/15 11:19:44;;;;;;;4.85;1.90;;;13.10;99.90;;;;;;4956436;28;20661;-71
2023/06/15 11:22:25;;;;;;;3.05;1.60;;;13.10;99.90;;;;;;4957225;28;20220;-71
2023/06/15 11:25:04;;;;;;;2.85;1.70;;;13.10;99.90;;;;;;4957607;28;20189;-71
2023/06/15 11:27:36;;;;;;;4.70;1.95;;;13.10;99.90;;;;;;4956927;28;20287;-71
2023/06/15 11:30:11;;;;;;;3.28;1.77;;;13.00;99.90;;;;;;4940893;29;20205;-72
2023/06/15 11:32:48;;;;;;;4.25;1.90;;;13.00;99.90;;;;;;4954973;28;20656;-71
2023/06/15 11:35:20;;;;;;;4.03;1.70;;;13.00;99.90;;;;;;4957265;28;20192;-72
2023/06/15 11:37:54;;;;;;;4.07;1.40;;;12.90;99.90;;;;;;4956490;28;20232;-71
2023/06/15 11:40:25;;;;;;;4.00;1.80;;;12.90;99.90;;;;;;4957275;28;20212;-71
2023/06/15 11:42:59;;;;;;;3.13;1.40;;;12.90;99.90;;;;;;4956461;28;20282;-71
2023/06/15 11:45:32;;;;;;;3.67;1.85;;;12.90;99.90;;;;;;4967396;28;20235;-71
2023/06/15 11:48:03;;;;;;;5.78;2.40;;;13.00;99.90;;;;;;4975223;28;20283;-71
2023/06/15 11:50:37;;;;;;;7.05;2.45;;;13.00;99.90;;;;;;4958091;28;20200;-71
2023/06/15 11:53:09;;;;;;;6.70;2.80;;;12.90;99.90;;;;;;4955440;28;20227;-71
2023/06/15 11:55:46;;;;;;;4.40;2.67;;;12.90;99.90;;;;;;4954337;28;20212;-71
2023/06/15 11:58:17;;;;;;;6.28;2.60;;;12.90;99.90;;;;;;4949107;28;20688;-71
2023/06/15 12:00:48;;;;;;;4.55;2.50;;;12.90;99.90;;;;;;4953362;28;20220;-70
2023/06/15 12:03:23;;;;;;;5.60;2.40;;;12.80;99.90;;;;;;4953707;28;20201;-71
2023/06/15 12:06:03;;;;;;;4.43;2.17;;;12.80;99.90;;;;;;4955850;28;20244;-71
2023/06/15 12:08:38;;;;;;;4.57;2.42;;;12.70;99.90;;;;;;4967481;28;20607;-71
2023/06/15 12:11:11;;;;;;;3.95;2.10;;;12.80;99.90;;;;;;4956864;28;20519;-71
2023/06/15 12:13:42;;;;;;;4.35;1.92;;;12.70;99.90;;;;;;4955690;28;20232;-71
2023/06/15 12:16:14;;;;;;;3.28;1.83;;;12.70;99.90;;;;;;4956595;28;20200;-71
2023/06/15 12:18:45;;;;;;;5.70;1.83;;;12.60;99.90;;;;;;4955146;29;20217;-71
2023/06/15 12:21:20;;;;;;;5.72;1.70;;;12.60;99.90;;;;;;4953998;29;20602;-71
2023/06/15 12:23:55;;;;;;;4.18;1.85;;;12.60;99.90;;;;;;4951231;29;20547;-71
2023/06/15 12:26:32;;;;;;;2.58;1.67;;;12.60;99.90;;;;;;4956420;28;20680;-71
2023/06/15 12:29:03;;;;;;;3.10;1.73;;;12.50;99.90;;;;;;4955082;28;20648;-71
2023/06/15 12:31:37;;;;;;;5.03;2.00;;;12.50;99.90;;;;;;4954341;28;20660;-72
2023/06/15 12:34:13;;;;;;;3.97;2.00;;;12.50;99.90;;;;;;4937583;29;20265;-70
2023/06/15 12:36:44;;;;;;;3.13;1.70;;;12.50;99.90;;;;;;4949875;29;20660;-71
2023/06/15 12:39:18;;;;;;;4.35;1.90;;;12.50;99.90;;;;;;4953124;28;20229;-71
2023/06/15 12:41:49;;;;;;;3.97;1.77;;;12.40;99.90;;;;;;4954666;29;20660;-71
2023/06/15 12:44:20;;;;;;;3.80;1.75;;;12.40;99.90;;;;;;4952871;29;20201;-71
2023/06/15 12:46:52;;;;;;;5.97;1.95;;;12.40;99.90;;;;;;4949358;29;20331;-71
2023/06/15 12:49:23;;;;;;;5.65;2.53;;;12.40;99.90;;;;;;4947415;28;20206;-71
2023/06/15 12:51:54;;;;;;;5.13;2.60;;;12.40;99.90;;;;;;4954307;28;20197;-71
2023/06/15 12:54:26;;;;;;;4.45;2.55;;;12.40;99.90;;;;;;4953002;28;20216;-71
2023/06/15 12:56:58;;;;;;;9.10;2.85;;;12.40;99.90;;;;;;4945242;29;20201;-71
2023/06/15 12:59:29;;;;;;;7.07;2.30;;;12.30;99.90;;;;;;4953166;28;20235;-71
2023/06/15 13:01:59;;;;;;;3.10;2.20;;;12.30;99.90;;;;;;4954082;28;20232;-71
2023/06/15 13:04:30;;;;;;;4.63;2.60;;;12.30;99.90;;;;;;4950670;28;20209;-71
2023/06/15 13:07:01;;;;;;;6.80;2.40;;;12.20;99.90;;;;;;4953394;28;20193;-70
2023/06/15 13:09:35;;;;;;;4.50;2.35;;;12.20;99.90;;;;;;4952206;29;20519;-70
2023/06/15 13:12:07;;;;;;;4.32;2.67;;;12.10;99.90;;;;;;4955839;28;20192;-70
2023/06/15 13:14:38;;;;;;;5.28;2.72;;;12.00;99.90;;;;;;4953863;28;20201;-70